Majestic — ZCPX7 — position and weather

sailwx.info

Track history (hours):
 
Tides and Currents Weather Stations Pressure Air Temp Water Temp Dewpoint Dewpoint Depression Visibility Wind Speed Wind Dir Waves Ship Positions

Majestic

Last reported at 2015-Aug-28 06:16 UTC. Time now 2015-Aug-28 07:35 UTC.
Position N 40°34' E 014°14'.

Length 61 m; draft 3.4 m.

Type: Pleasure craft. MMSI: 319654000.

Date/timePositionNaut miles runAvg speedWind from/ knotsBaromVisibWave heightAir tempDewpointWater temp
2015-Aug-28 06:16N 40°34' E 014°14'1 1.1
2015-Aug-28 05:33N 40°34' E 014°15'0 0.1
2015-Aug-28 04:24N 40°33' E 014°15'0 0.0
2015-Aug-28 03:33N 40°33' E 014°15'0 0.0
2015-Aug-28 02:30N 40°33' E 014°15'0 0.0
2015-Aug-28 01:30N 40°33' E 014°15'0 0.0
2015-Aug-28 00:33N 40°33' E 014°15'0 0.0
2015-Aug-27 23:33N 40°33' E 014°15'0 0.0
2015-Aug-27 22:30N 40°33' E 014°15'0 0.0
2015-Aug-27 21:33N 40°33' E 014°15'0 0.0
2015-Aug-27 20:33N 40°33' E 014°15'0 0.0
2015-Aug-27 19:30N 40°33' E 014°15'0 0.0
2015-Aug-27 18:33N 40°33' E 014°15'0 0.0
2015-Aug-27 17:33N 40°33' E 014°15'0 0.0
2015-Aug-27 05:34N 40°34' E 014°15'0 0.3
2015-Aug-27 04:32N 40°33' E 014°15'0 0.0
2015-Aug-27 03:32N 40°33' E 014°15'0 0.0
2015-Aug-27 02:32N 40°33' E 014°15'0 0.0
2015-Aug-27 01:32N 40°33' E 014°15'0 0.0
2015-Aug-27 00:32N 40°33' E 014°15'0 0.0
2015-Aug-26 23:32N 40°33' E 014°15'0 0.0
2015-Aug-26 22:32N 40°33' E 014°15'0 0.0
2015-Aug-26 21:20N 40°33' E 014°15'0 0.0
2015-Aug-26 20:29N 40°33' E 014°15'1 1.3
2015-Aug-26 19:33N 40°34' E 014°16'11 1.0
2015-Aug-26 08:32N 40°37' E 014°29'1211.8
2015-Aug-26 07:33N 40°34' E 014°15'0 0.1
2015-Aug-26 06:21N 40°34' E 014°15'0 0.0
2015-Aug-26 05:33N 40°34' E 014°15'0 0.0
2015-Aug-26 04:24N 40°34' E 014°15'0 0.0
2015-Aug-26 03:33N 40°34' E 014°15'0 0.0
2015-Aug-26 02:33N 40°34' E 014°15'0 0.0
2015-Aug-26 01:30N 40°34' E 014°15'0 0.0
2015-Aug-26 00:30N 40°34' E 014°15'0 0.0
2015-Aug-25 23:24N 40°34' E 014°15'0 0.0
2015-Aug-25 22:30N 40°34' E 014°15'0 0.0
2015-Aug-25 21:33N 40°34' E 014°15'0 0.0
2015-Aug-25 20:24N 40°34' E 014°15'0 0.0
2015-Aug-25 19:33N 40°34' E 014°15'0 0.0
2015-Aug-25 18:33N 40°34' E 014°15'1 0.9
2015-Aug-25 17:33N 40°34' E 014°16'1 0.1
2015-Aug-25 01:16N 40°33' E 014°16'1 0.1
2015-Aug-24 12:28N 40°32' E 014°15'0 0.0
2015-Aug-24 11:29N 40°32' E 014°15'4 4.8
2015-Aug-24 10:33N 40°37' E 014°13'1211.6
2015-Aug-24 09:32N 40°45' E 014°02'0 0.0
2015-Aug-24 08:32N 40°45' E 014°02'0 0.0
2015-Aug-24 07:32N 40°45' E 014°02'10 4.4
2015-Aug-24 05:17N 40°44' E 014°15'11 1.8
2015-Aug-23 23:28N 40°43' E 014°28'0 0.0
2015-Aug-23 17:16N 40°43' E 014°28'0 0.0
2015-Aug-23 16:07N 40°43' E 014°28'0 0.0
2015-Aug-23 15:19N 40°43' E 014°28'0 0.0
2015-Aug-23 14:25N 40°43' E 014°28'0 0.0
2015-Aug-23 13:31N 40°43' E 014°28'0 0.0
2015-Aug-23 11:31N 40°43' E 014°28'0 0.0
2015-Aug-22 23:13N 40°43' E 014°28'0 0.0
2015-Aug-22 19:31N 40°43' E 014°28'0 0.0
2015-Aug-22 18:22N 40°43' E 014°28'0 0.0
2015-Aug-22 17:13N 40°43' E 014°28'0 0.0
2015-Aug-22 14:31N 40°43' E 014°28'0 0.0
2015-Aug-22 03:31N 40°43' E 014°28'0 0.0
2015-Aug-22 01:31N 40°43' E 014°28'0 0.0
2015-Aug-21 20:31N 40°43' E 014°28'0 0.0
2015-Aug-21 19:19N 40°43' E 014°28'0 0.0
2015-Aug-21 17:25N 40°43' E 014°28'0 0.0
2015-Aug-21 16:13N 40°43' E 014°28'0 0.0
2015-Aug-21 15:25N 40°43' E 014°28'0 0.0
2015-Aug-21 13:19N 40°43' E 014°28'0 0.0
2015-Aug-21 12:25N 40°43' E 014°28'0 0.0
2015-Aug-21 11:31N 40°43' E 014°28'0 0.0
2015-Aug-21 10:31N 40°43' E 014°28'0 0.0
2015-Aug-21 09:25N 40°43' E 014°28'0 0.0
2015-Aug-21 08:15N 40°43' E 014°28'0 0.0
2015-Aug-21 07:33N 40°43' E 014°28'0 0.0
2015-Aug-21 06:31N 40°43' E 014°28'0 0.0
2015-Aug-21 05:33N 40°43' E 014°28'0 0.0
2015-Aug-21 03:32N 40°43' E 014°28'0 0.0
2015-Aug-21 02:31N 40°43' E 014°28'0 0.0
2015-Aug-21 01:30N 40°43' E 014°28'0 0.0
2015-Aug-21 00:33N 40°43' E 014°28'0 0.0
2015-Aug-20 23:32N 40°43' E 014°28'0 0.0
2015-Aug-20 22:31N 40°43' E 014°28'0 0.0
2015-Aug-20 21:33N 40°43' E 014°28'0 0.0
2015-Aug-20 20:32N 40°43' E 014°28'0 0.0
2015-Aug-20 19:31N 40°43' E 014°28'0 0.0
2015-Aug-20 18:33N 40°43' E 014°28'0 0.0
2015-Aug-20 17:33N 40°43' E 014°28'0 0.0
2015-Aug-20 16:33N 40°43' E 014°28'0 0.0
2015-Aug-20 15:31N 40°43' E 014°28'0 0.0
2015-Aug-20 14:21N 40°43' E 014°28'0 0.1
2015-Aug-20 13:33N 40°43' E 014°28'1111.3
2015-Aug-20 12:33N 40°36' E 014°17'2 0.3
2015-Aug-20 07:33N 40°35' E 014°17'1211.8
2015-Aug-20 06:33N 40°43' E 014°28'0 0.0
2015-Aug-19 14:24N 40°43' E 014°28'0 0.0
2015-Aug-19 05:12N 40°43' E 014°28'0 0.0
2015-Aug-18 23:33N 40°43' E 014°28'1010.3
2015-Aug-18 22:34N 40°36' E 014°18'3 0.7
2015-Aug-18 18:20N 40°34' E 014°21'4 0.5
2015-Aug-18 10:31N 40°33' E 014°16'1010.2
2015-Aug-18 09:33N 40°40' E 014°24'  
Track history (hours):
 
Tides and Currents Weather Stations Pressure Air Temp Water Temp Dewpoint Dewpoint Depression Visibility Wind Speed Wind Dir Waves Ship Positions

Majestic

Last reported at 2015-Aug-28 06:16 UTC. Time now 2015-Aug-28 07:35 UTC.
Position N 40°34' E 014°14'.

Length 61 m; draft 3.4 m.

Type: Pleasure craft. MMSI: 319654000.

Date/timePositionNaut miles runAvg speedWind from/ knotsBaromVisibWave heightAir tempDewpointWater temp
2015-Aug-28 06:16N 40°34' E 014°14'1 1.1
2015-Aug-28 05:33N 40°34' E 014°15'0 0.1
2015-Aug-28 04:24N 40°33' E 014°15'0 0.0
2015-Aug-28 03:33N 40°33' E 014°15'0 0.0
2015-Aug-28 02:30N 40°33' E 014°15'0 0.0
2015-Aug-28 01:30N 40°33' E 014°15'0 0.0
2015-Aug-28 00:33N 40°33' E 014°15'0 0.0
2015-Aug-27 23:33N 40°33' E 014°15'0 0.0
2015-Aug-27 22:30N 40°33' E 014°15'0 0.0
2015-Aug-27 21:33N 40°33' E 014°15'0 0.0
2015-Aug-27 20:33N 40°33' E 014°15'0 0.0
2015-Aug-27 19:30N 40°33' E 014°15'0 0.0
2015-Aug-27 18:33N 40°33' E 014°15'0 0.0
2015-Aug-27 17:33N 40°33' E 014°15'0 0.0
2015-Aug-27 05:34N 40°34' E 014°15'0 0.3
2015-Aug-27 04:32N 40°33' E 014°15'0 0.0
2015-Aug-27 03:32N 40°33' E 014°15'0 0.0
2015-Aug-27 02:32N 40°33' E 014°15'0 0.0
2015-Aug-27 01:32N 40°33' E 014°15'0 0.0
2015-Aug-27 00:32N 40°33' E 014°15'0 0.0
2015-Aug-26 23:32N 40°33' E 014°15'0 0.0
2015-Aug-26 22:32N 40°33' E 014°15'0 0.0
2015-Aug-26 21:20N 40°33' E 014°15'0 0.0
2015-Aug-26 20:29N 40°33' E 014°15'1 1.3
2015-Aug-26 19:33N 40°34' E 014°16'11 1.0
2015-Aug-26 08:32N 40°37' E 014°29'1211.8
2015-Aug-26 07:33N 40°34' E 014°15'0 0.1
2015-Aug-26 06:21N 40°34' E 014°15'0 0.0
2015-Aug-26 05:33N 40°34' E 014°15'0 0.0
2015-Aug-26 04:24N 40°34' E 014°15'0 0.0
2015-Aug-26 03:33N 40°34' E 014°15'0 0.0
2015-Aug-26 02:33N 40°34' E 014°15'0 0.0
2015-Aug-26 01:30N 40°34' E 014°15'0 0.0
2015-Aug-26 00:30N 40°34' E 014°15'0 0.0
2015-Aug-25 23:24N 40°34' E 014°15'0 0.0
2015-Aug-25 22:30N 40°34' E 014°15'0 0.0
2015-Aug-25 21:33N 40°34' E 014°15'0 0.0
2015-Aug-25 20:24N 40°34' E 014°15'0 0.0
2015-Aug-25 19:33N 40°34' E 014°15'0 0.0
2015-Aug-25 18:33N 40°34' E 014°15'1 0.9
2015-Aug-25 17:33N 40°34' E 014°16'1 0.1
2015-Aug-25 01:16N 40°33' E 014°16'1 0.1
2015-Aug-24 12:28N 40°32' E 014°15'0 0.0
2015-Aug-24 11:29N 40°32' E 014°15'4 4.8
2015-Aug-24 10:33N 40°37' E 014°13'1211.6
2015-Aug-24 09:32N 40°45' E 014°02'0 0.0
2015-Aug-24 08:32N 40°45' E 014°02'0 0.0
2015-Aug-24 07:32N 40°45' E 014°02'10 4.4
2015-Aug-24 05:17N 40°44' E 014°15'11 1.8
2015-Aug-23 23:28N 40°43' E 014°28'0 0.0
2015-Aug-23 17:16N 40°43' E 014°28'0 0.0
2015-Aug-23 16:07N 40°43' E 014°28'0 0.0
2015-Aug-23 15:19N 40°43' E 014°28'0 0.0
2015-Aug-23 14:25N 40°43' E 014°28'0 0.0
2015-Aug-23 13:31N 40°43' E 014°28'0 0.0
2015-Aug-23 11:31N 40°43' E 014°28'0 0.0
2015-Aug-22 23:13N 40°43' E 014°28'0 0.0
2015-Aug-22 19:31N 40°43' E 014°28'0 0.0
2015-Aug-22 18:22N 40°43' E 014°28'0 0.0
2015-Aug-22 17:13N 40°43' E 014°28'0 0.0
2015-Aug-22 14:31N 40°43' E 014°28'0 0.0
2015-Aug-22 03:31N 40°43' E 014°28'0 0.0
2015-Aug-22 01:31N 40°43' E 014°28'0 0.0
2015-Aug-21 20:31N 40°43' E 014°28'0 0.0
2015-Aug-21 19:19N 40°43' E 014°28'0 0.0
2015-Aug-21 17:25N 40°43' E 014°28'0 0.0
2015-Aug-21 16:13N 40°43' E 014°28'0 0.0
2015-Aug-21 15:25N 40°43' E 014°28'0 0.0
2015-Aug-21 13:19N 40°43' E 014°28'0 0.0
2015-Aug-21 12:25N 40°43' E 014°28'0 0.0
2015-Aug-21 11:31N 40°43' E 014°28'0 0.0
2015-Aug-21 10:31N 40°43' E 014°28'0 0.0
2015-Aug-21 09:25N 40°43' E 014°28'0 0.0
2015-Aug-21 08:15N 40°43' E 014°28'0 0.0
2015-Aug-21 07:33N 40°43' E 014°28'0 0.0
2015-Aug-21 06:31N 40°43' E 014°28'0 0.0
2015-Aug-21 05:33N 40°43' E 014°28'0 0.0
2015-Aug-21 03:32N 40°43' E 014°28'0 0.0
2015-Aug-21 02:31N 40°43' E 014°28'0 0.0
2015-Aug-21 01:30N 40°43' E 014°28'0 0.0
2015-Aug-21 00:33N 40°43' E 014°28'0 0.0
2015-Aug-20 23:32N 40°43' E 014°28'0 0.0
2015-Aug-20 22:31N 40°43' E 014°28'0 0.0
2015-Aug-20 21:33N 40°43' E 014°28'0 0.0
2015-Aug-20 20:32N 40°43' E 014°28'0 0.0
2015-Aug-20 19:31N 40°43' E 014°28'0 0.0
2015-Aug-20 18:33N 40°43' E 014°28'0 0.0
2015-Aug-20 17:33N 40°43' E 014°28'0 0.0
2015-Aug-20 16:33N 40°43' E 014°28'0 0.0
2015-Aug-20 15:31N 40°43' E 014°28'0 0.0
2015-Aug-20 14:21N 40°43' E 014°28'0 0.1
2015-Aug-20 13:33N 40°43' E 014°28'1111.3
2015-Aug-20 12:33N 40°36' E 014°17'2 0.3
2015-Aug-20 07:33N 40°35' E 014°17'1211.8
2015-Aug-20 06:33N 40°43' E 014°28'0 0.0
2015-Aug-19 14:24N 40°43' E 014°28'0 0.0
2015-Aug-19 05:12N 40°43' E 014°28'0 0.0
2015-Aug-18 23:33N 40°43' E 014°28'1010.3
2015-Aug-18 22:34N 40°36' E 014°18'3 0.7
2015-Aug-18 18:20N 40°34' E 014°21'4 0.5
2015-Aug-18 10:31N 40°33' E 014°16'1010.2
2015-Aug-18 09:33N 40°40' E 014°24'  

Dump ship's entire track history